sensor_id;sensor_type;location;lat;lon;timestamp;temperature;humidity
11736;DHT22;5924;51.398;7.088;2022-07-04T00:00:06;13.20;99.90
11736;DHT22;5924;51.398;7.088;2022-07-04T00:02:32;13.10;99.90
11736;DHT22;5924;51.398;7.088;2022-07-04T00:04:58;13.10;99.90
11736;DHT22;5924;51.398;7.088;2022-07-04T00:07:24;13.00;99.90
11736;DHT22;5924;51.398;7.088;2022-07-04T00:09:49;12.90;9.50
11736;DHT22;5924;51.398;7.088;2022-07-04T00:12:15;12.90;14.30
11736;DHT22;5924;51.398;7.088;2022-07-04T00:14:41;12.90;17.20
11736;DHT22;5924;51.398;7.088;2022-07-04T00:17:07;12.80;19.20
11736;DHT22;5924;51.398;7.088;2022-07-04T00:19:32;12.70;21.80
11736;DHT22;5924;51.398;7.088;2022-07-04T00:21:58;12.70;27.70
11736;DHT22;5924;51.398;7.088;2022-07-04T00:24:24;12.70;30.10
11736;DHT22;5924;51.398;7.088;2022-07-04T00:26:50;12.60;31.10
11736;DHT22;5924;51.398;7.088;2022-07-04T00:29:15;12.60;32.40
11736;DHT22;5924;51.398;7.088;2022-07-04T00:31:41;12.50;32.80
11736;DHT22;5924;51.398;7.088;2022-07-04T00:34:07;12.50;34.10
11736;DHT22;5924;51.398;7.088;2022-07-04T00:36:33;12.50;35.70
11736;DHT22;5924;51.398;7.088;2022-07-04T00:38:58;12.40;38.10
11736;DHT22;5924;51.398;7.088;2022-07-04T00:41:24;12.40;40.80
11736;DHT22;5924;51.398;7.088;2022-07-04T00:44:03;12.30;41.90
11736;DHT22;5924;51.398;7.088;2022-07-04T00:46:29;12.30;42.00
11736;DHT22;5924;51.398;7.088;2022-07-04T00:48:55;12.30;43.30
11736;DHT22;5924;51.398;7.088;2022-07-04T00:51:22;12.30;43.80
11736;DHT22;5924;51.398;7.088;2022-07-04T00:53:48;12.30;46.20
11736;DHT22;5924;51.398;7.088;2022-07-04T00:56:14;12.30;47.90
11736;DHT22;5924;51.398;7.088;2022-07-04T00:58:39;12.20;51.10
11736;DHT22;5924;51.398;7.088;2022-07-04T01:01:05;12.90;53.90
11736;DHT22;5924;51.398;7.088;2022-07-04T01:03:31;12.20;54.30
11736;DHT22;5924;51.398;7.088;2022-07-04T01:05:58;12.10;53.90
11736;DHT22;5924;51.398;7.088;2022-07-04T01:08:25;12.10;53.60
11736;DHT22;5924;51.398;7.088;2022-07-04T01:10:51;12.10;53.90
11736;DHT22;5924;51.398;7.088;2022-07-04T01:13:20;12.10;56.00
11736;DHT22;5924;51.398;7.088;2022-07-04T01:15:46;12.20;63.70
11736;DHT22;5924;51.398;7.088;2022-07-04T01:18:12;12.20;72.20
11736;DHT22;5924;51.398;7.088;2022-07-04T01:20:38;12.30;73.40
11736;DHT22;5924;51.398;7.088;2022-07-04T01:23:04;12.20;70.90
11736;DHT22;5924;51.398;7.088;2022-07-04T01:25:30;12.20;68.40
11736;DHT22;5924;51.398;7.088;2022-07-04T01:27:57;12.20;65.00
11736;DHT22;5924;51.398;7.088;2022-07-04T01:30:22;12.10;63.40
11736;DHT22;5924;51.398;7.088;2022-07-04T01:32:48;12.10;64.00
11736;DHT22;5924;51.398;7.088;2022-07-04T01:35:14;12.10;68.30
11736;DHT22;5924;51.398;7.088;2022-07-04T01:37:39;12.10;76.10
11736;DHT22;5924;51.398;7.088;2022-07-04T01:40:06;12.20;76.80
11736;DHT22;5924;51.398;7.088;2022-07-04T01:42:31;12.30;75.90
11736;DHT22;5924;51.398;7.088;2022-07-04T01:44:57;12.20;69.30
11736;DHT22;5924;51.398;7.088;2022-07-04T01:47:23;12.60;66.10
11736;DHT22;5924;51.398;7.088;2022-07-04T01:49:48;12.10;63.50
11736;DHT22;5924;51.398;7.088;2022-07-04T01:52:14;12.10;61.90
11736;DHT22;5924;51.398;7.088;2022-07-04T01:54:41;12.10;61.30
11736;DHT22;5924;51.398;7.088;2022-07-04T01:57:07;12.10;61.00
11736;DHT22;5924;51.398;7.088;2022-07-04T01:59:32;12.00;61.80
11736;DHT22;5924;51.398;7.088;2022-07-04T02:02:16;11.90;63.90
11736;DHT22;5924;51.398;7.088;2022-07-04T02:04:42;11.90;67.00
11736;DHT22;5924;51.398;7.088;2022-07-04T02:07:08;11.80;69.00
11736;DHT22;5924;51.398;7.088;2022-07-04T02:09:33;11.80;71.30
11736;DHT22;5924;51.398;7.088;2022-07-04T02:11:59;11.70;72.00
11736;DHT22;5924;51.398;7.088;2022-07-04T02:14:44;11.60;73.80
11736;DHT22;5924;51.398;7.088;2022-07-04T02:17:10;11.60;77.70
11736;DHT22;5924;51.398;7.088;2022-07-04T02:19:36;11.60;79.00
11736;DHT22;5924;51.398;7.088;2022-07-04T02:22:02;11.50;80.50
11736;DHT22;5924;51.398;7.088;2022-07-04T02:24:28;11.50;83.00
11736;DHT22;5924;51.398;7.088;2022-07-04T02:26:54;11.50;87.50
11736;DHT22;5924;51.398;7.088;2022-07-04T02:29:20;11.60;90.50
11736;DHT22;5924;51.398;7.088;2022-07-04T02:31:46;11.40;90.40
11736;DHT22;5924;51.398;7.088;2022-07-04T02:34:12;11.40;91.10
11736;DHT22;5924;51.398;7.088;2022-07-04T02:36:37;11.30;91.90
11736;DHT22;5924;51.398;7.088;2022-07-04T02:39:04;11.30;92.90
11736;DHT22;5924;51.398;7.088;2022-07-04T02:41:31;11.30;93.80
11736;DHT22;5924;51.398;7.088;2022-07-04T02:43:57;11.30;94.60
11736;DHT22;5924;51.398;7.088;2022-07-04T02:46:23;11.20;95.10
11736;DHT22;5924;51.398;7.088;2022-07-04T02:48:48;11.20;95.50
11736;DHT22;5924;51.398;7.088;2022-07-04T02:51:14;11.10;95.60
11736;DHT22;5924;51.398;7.088;2022-07-04T02:53:40;11.10;96.70
11736;DHT22;5924;51.398;7.088;2022-07-04T02:56:06;11.10;99.90
11736;DHT22;5924;51.398;7.088;2022-07-04T02:58:32;11.10;99.90
11736;DHT22;5924;51.398;7.088;2022-07-04T03:00:58;11.10;99.90
11736;DHT22;5924;51.398;7.088;2022-07-04T03:03:23;11.00;99.90
11736;DHT22;5924;51.398;7.088;2022-07-04T03:05:49;11.00;99.90
11736;DHT22;5924;51.398;7.088;2022-07-04T03:08:15;10.90;99.90
11736;DHT22;5924;51.398;7.088;2022-07-04T03:10:40;10.90;99.90
11736;DHT22;5924;51.398;7.088;2022-07-04T03:13:06;10.90;99.90
11736;DHT22;5924;51.398;7.088;2022-07-04T03:15:32;10.90;99.90
11736;DHT22;5924;51.398;7.088;2022-07-04T03:17:57;10.90;99.90
11736;DHT22;5924;51.398;7.088;2022-07-04T03:20:23;10.80;99.90
11736;DHT22;5924;51.398;7.088;2022-07-04T03:22:49;10.80;99.90
11736;DHT22;5924;51.398;7.088;2022-07-04T03:25:14;10.70;99.90
11736;DHT22;5924;51.398;7.088;2022-07-04T03:27:40;10.70;99.90
11736;DHT22;5924;51.398;7.088;2022-07-04T03:30:06;10.70;99.90
11736;DHT22;5924;51.398;7.088;2022-07-04T03:32:32;10.70;99.90
11736;DHT22;5924;51.398;7.088;2022-07-04T03:34:57;10.70;99.90
11736;DHT22;5924;51.398;7.088;2022-07-04T03:37:23;10.60;99.90
11736;DHT22;5924;51.398;7.088;2022-07-04T03:39:48;10.70;99.90
11736;DHT22;5924;51.398;7.088;2022-07-04T03:42:14;10.70;99.90
11736;DHT22;5924;51.398;7.088;2022-07-04T03:44:40;10.70;99.90
11736;DHT22;5924;51.398;7.088;2022-07-04T03:47:05;10.60;99.90
11736;DHT22;5924;51.398;7.088;2022-07-04T03:49:31;10.60;99.90
11736;DHT22;5924;51.398;7.088;2022-07-04T03:51:56;10.60;99.90
11736;DHT22;5924;51.398;7.088;2022-07-04T03:54:22;10.60;99.90
11736;DHT22;5924;51.398;7.088;2022-07-04T03:56:48;10.70;99.90
11736;DHT22;5924;51.398;7.088;2022-07-04T03:59:14;10.70;99.90
11736;DHT22;5924;51.398;7.088;2022-07-04T04:01:40;10.70;99.90
11736;DHT22;5924;51.398;7.088;2022-07-04T04:04:06;10.70;99.90
11736;DHT22;5924;51.398;7.088;2022-07-04T04:06:50;10.60;99.90
11736;DHT22;5924;51.398;7.088;2022-07-04T04:09:16;10.60;99.90
11736;DHT22;5924;51.398;7.088;2022-07-04T04:11:43;10.60;99.90
11736;DHT22;5924;51.398;7.088;2022-07-04T04:14:09;10.70;99.90
11736;DHT22;5924;51.398;7.088;2022-07-04T04:16:35;10.70;99.90
11736;DHT22;5924;51.398;7.088;2022-07-04T04:19:01;10.70;99.90
11736;DHT22;5924;51.398;7.088;2022-07-04T04:21:26;10.70;99.90
11736;DHT22;5924;51.398;7.088;2022-07-04T04:23:52;10.70;99.90
11736;DHT22;5924;51.398;7.088;2022-07-04T04:26:18;10.70;99.90
11736;DHT22;5924;51.398;7.088;2022-07-04T04:28:43;10.70;99.90
11736;DHT22;5924;51.398;7.088;2022-07-04T04:31:09;10.80;99.90
11736;DHT22;5924;51.398;7.088;2022-07-04T04:33:35;10.90;99.90
11736;DHT22;5924;51.398;7.088;2022-07-04T04:36:01;10.90;99.90
11736;DHT22;5924;51.398;7.088;2022-07-04T04:38:27;10.90;99.90
11736;DHT22;5924;51.398;7.088;2022-07-04T04:40:53;11.00;99.90
11736;DHT22;5924;51.398;7.088;2022-07-04T04:43:18;11.00;99.90
11736;DHT22;5924;51.398;7.088;2022-07-04T04:45:44;11.00;99.90
11736;DHT22;5924;51.398;7.088;2022-07-04T04:48:09;11.00;99.90
11736;DHT22;5924;51.398;7.088;2022-07-04T04:50:35;11.10;99.90
11736;DHT22;5924;51.398;7.088;2022-07-04T04:53:01;11.10;99.90
11736;DHT22;5924;51.398;7.088;2022-07-04T04:55:27;11.20;99.90
11736;DHT22;5924;51.398;7.088;2022-07-04T04:57:53;11.20;99.90
11736;DHT22;5924;51.398;7.088;2022-07-04T05:00:19;11.20;99.90
11736;DHT22;5924;51.398;7.088;2022-07-04T05:02:45;11.30;99.90
11736;DHT22;5924;51.398;7.088;2022-07-04T05:05:10;11.30;99.90
11736;DHT22;5924;51.398;7.088;2022-07-04T05:07:36;11.40;99.90
11736;DHT22;5924;51.398;7.088;2022-07-04T05:10:02;11.50;99.90
11736;DHT22;5924;51.398;7.088;2022-07-04T05:12:28;11.60;99.90
11736;DHT22;5924;51.398;7.088;2022-07-04T05:14:54;11.70;99.90
11736;DHT22;5924;51.398;7.088;2022-07-04T05:17:20;11.70;99.30
11736;DHT22;5924;51.398;7.088;2022-07-04T05:19:46;11.80;98.30
11736;DHT22;5924;51.398;7.088;2022-07-04T05:22:12;11.90;97.40
11736;DHT22;5924;51.398;7.088;2022-07-04T05:24:38;12.00;96.50
11736;DHT22;5924;51.398;7.088;2022-07-04T05:27:06;12.10;95.30
11736;DHT22;5924;51.398;7.088;2022-07-04T05:29:31;12.20;94.40
11736;DHT22;5924;51.398;7.088;2022-07-04T05:31:57;12.30;92.80
11736;DHT22;5924;51.398;7.088;2022-07-04T05:34:23;12.40;91.30
11736;DHT22;5924;51.398;7.088;2022-07-04T05:36:49;12.50;90.00
11736;DHT22;5924;51.398;7.088;2022-07-04T05:39:15;12.60;87.00
11736;DHT22;5924;51.398;7.088;2022-07-04T05:41:40;12.70;85.00
11736;DHT22;5924;51.398;7.088;2022-07-04T05:44:06;12.80;83.40
11736;DHT22;5924;51.398;7.088;2022-07-04T05:46:32;12.80;82.30
11736;DHT22;5924;51.398;7.088;2022-07-04T05:48:58;13.00;81.70
11736;DHT22;5924;51.398;7.088;2022-07-04T05:51:24;13.10;82.00
11736;DHT22;5924;51.398;7.088;2022-07-04T05:53:49;13.20;82.70
11736;DHT22;5924;51.398;7.088;2022-07-04T05:56:15;13.30;79.50
11736;DHT22;5924;51.398;7.088;2022-07-04T05:58:41;13.50;76.30
11736;DHT22;5924;51.398;7.088;2022-07-04T06:01:07;13.60;72.70
11736;DHT22;5924;51.398;7.088;2022-07-04T06:03:34;13.70;70.70
11736;DHT22;5924;51.398;7.088;2022-07-04T06:06:02;13.80;67.50
11736;DHT22;5924;51.398;7.088;2022-07-04T06:08:28;14.00;64.60
11736;DHT22;5924;51.398;7.088;2022-07-04T06:10:53;14.10;58.80
11736;DHT22;5924;51.398;7.088;2022-07-04T06:13:19;14.20;55.80
11736;DHT22;5924;51.398;7.088;2022-07-04T06:15:45;14.30;52.70
11736;DHT22;5924;51.398;7.088;2022-07-04T06:18:10;14.30;49.90
11736;DHT22;5924;51.398;7.088;2022-07-04T06:20:37;14.40;48.40
11736;DHT22;5924;51.398;7.088;2022-07-04T06:23:05;14.50;47.40
11736;DHT22;5924;51.398;7.088;2022-07-04T06:25:31;14.70;46.70
11736;DHT22;5924;51.398;7.088;2022-07-04T06:27:58;14.80;42.40
11736;DHT22;5924;51.398;7.088;2022-07-04T06:30:24;14.90;38.70
11736;DHT22;5924;51.398;7.088;2022-07-04T06:32:52;15.00;26.30
11736;DHT22;5924;51.398;7.088;2022-07-04T06:35:23;15.10;21.30
11736;DHT22;5924;51.398;7.088;2022-07-04T06:38:08;15.20;15.60
11736;DHT22;5924;51.398;7.088;2022-07-04T06:40:35;15.30;2.70
11736;DHT22;5924;51.398;7.088;2022-07-04T06:43:01;15.30;1.00
11736;DHT22;5924;51.398;7.088;2022-07-04T06:45:27;15.40;1.00
11736;DHT22;5924;51.398;7.088;2022-07-04T06:47:52;15.50;1.00
11736;DHT22;5924;51.398;7.088;2022-07-04T06:50:18;15.50;1.00
11736;DHT22;5924;51.398;7.088;2022-07-04T06:52:44;15.60;1.00
11736;DHT22;5924;51.398;7.088;2022-07-04T06:55:10;15.70;1.00
11736;DHT22;5924;51.398;7.088;2022-07-04T06:57:36;15.80;1.00
11736;DHT22;5924;51.398;7.088;2022-07-04T07:00:04;16.00;1.00
11736;DHT22;5924;51.398;7.088;2022-07-04T07:02:30;16.10;1.00
11736;DHT22;5924;51.398;7.088;2022-07-04T07:04:56;16.10;1.00
11736;DHT22;5924;51.398;7.088;2022-07-04T07:07:23;16.20;1.00
11736;DHT22;5924;51.398;7.088;2022-07-04T07:09:53;16.20;1.00
11736;DHT22;5924;51.398;7.088;2022-07-04T07:12:20;16.40;1.00
11736;DHT22;5924;51.398;7.088;2022-07-04T07:14:46;16.40;1.00
11736;DHT22;5924;51.398;7.088;2022-07-04T07:17:11;16.50;1.00
11736;DHT22;5924;51.398;7.088;2022-07-04T07:19:37;16.60;1.00
11736;DHT22;5924;51.398;7.088;2022-07-04T07:22:03;16.70;99.90
11736;DHT22;5924;51.398;7.088;2022-07-04T07:24:29;16.80;99.90
11736;DHT22;5924;51.398;7.088;2022-07-04T07:26:56;16.90;99.90
11736;DHT22;5924;51.398;7.088;2022-07-04T07:29:23;17.00;99.90
11736;DHT22;5924;51.398;7.088;2022-07-04T07:31:49;17.10;99.90
11736;DHT22;5924;51.398;7.088;2022-07-04T07:34:14;17.20;99.90
11736;DHT22;5924;51.398;7.088;2022-07-04T07:36:40;17.30;13.40
11736;DHT22;5924;51.398;7.088;2022-07-04T07:39:06;17.50;1.00
11736;DHT22;5924;51.398;7.088;2022-07-04T07:41:32;17.60;1.00
11736;DHT22;5924;51.398;7.088;2022-07-04T07:43:58;17.70;99.90
11736;DHT22;5924;51.398;7.088;2022-07-04T07:46:23;17.80;91.20
11736;DHT22;5924;51.398;7.088;2022-07-04T07:48:49;18.00;1.00
11736;DHT22;5924;51.398;7.088;2022-07-04T07:51:15;20.10;1.00
11736;DHT22;5924;51.398;7.088;2022-07-04T07:53:42;18.20;1.00
11736;DHT22;5924;51.398;7.088;2022-07-04T07:56:07;18.30;19.80
11736;DHT22;5924;51.398;7.088;2022-07-04T07:58:33;18.40;1.00
11736;DHT22;5924;51.398;7.088;2022-07-04T08:00:59;18.60;1.00
11736;DHT22;5924;51.398;7.088;2022-07-04T08:03:25;18.70;1.00
11736;DHT22;5924;51.398;7.088;2022-07-04T08:06:10;18.90;99.90
11736;DHT22;5924;51.398;7.088;2022-07-04T08:08:37;19.00;99.90
11736;DHT22;5924;51.398;7.088;2022-07-04T08:11:03;19.10;99.90
11736;DHT22;5924;51.398;7.088;2022-07-04T08:13:30;19.10;99.90
11736;DHT22;5924;51.398;7.088;2022-07-04T08:15:56;19.20;99.90
11736;DHT22;5924;51.398;7.088;2022-07-04T08:18:21;19.20;99.90
11736;DHT22;5924;51.398;7.088;2022-07-04T08:20:49;19.30;99.90
11736;DHT22;5924;51.398;7.088;2022-07-04T08:23:15;19.40;99.90
11736;DHT22;5924;51.398;7.088;2022-07-04T08:25:41;19.50;99.90
11736;DHT22;5924;51.398;7.088;2022-07-04T08:28:07;19.60;99.90
11736;DHT22;5924;51.398;7.088;2022-07-04T08:30:33;19.70;99.90
11736;DHT22;5924;51.398;7.088;2022-07-04T08:32:58;19.80;99.90
11736;DHT22;5924;51.398;7.088;2022-07-04T08:35:25;19.90;99.90
11736;DHT22;5924;51.398;7.088;2022-07-04T08:37:50;20.10;99.90
11736;DHT22;5924;51.398;7.088;2022-07-04T08:40:23;20.20;99.90
11736;DHT22;5924;51.398;7.088;2022-07-04T08:42:49;20.10;99.90
11736;DHT22;5924;51.398;7.088;2022-07-04T08:45:16;20.20;99.90
11736;DHT22;5924;51.398;7.088;2022-07-04T08:47:43;20.30;99.90
11736;DHT22;5924;51.398;7.088;2022-07-04T08:50:16;20.40;99.90
11736;DHT22;5924;51.398;7.088;2022-07-04T08:52:54;20.60;99.90
11736;DHT22;5924;51.398;7.088;2022-07-04T08:55:22;20.70;99.90
11736;DHT22;5924;51.398;7.088;2022-07-04T08:58:07;20.90;99.90
11736;DHT22;5924;51.398;7.088;2022-07-04T09:00:56;21.00;99.90
11736;DHT22;5924;51.398;7.088;2022-07-04T09:03:23;21.00;99.90
11736;DHT22;5924;51.398;7.088;2022-07-04T09:05:50;21.10;99.90
11736;DHT22;5924;51.398;7.088;2022-07-04T09:08:16;21.20;99.90
11736;DHT22;5924;51.398;7.088;2022-07-04T09:10:42;21.40;99.90
11736;DHT22;5924;51.398;7.088;2022-07-04T09:13:09;21.40;99.90
11736;DHT22;5924;51.398;7.088;2022-07-04T09:15:35;21.40;99.90
11736;DHT22;5924;51.398;7.088;2022-07-04T09:18:01;21.50;99.90
11736;DHT22;5924;51.398;7.088;2022-07-04T09:20:30;21.60;99.90
11736;DHT22;5924;51.398;7.088;2022-07-04T09:22:55;21.70;99.90
11736;DHT22;5924;51.398;7.088;2022-07-04T09:25:22;21.60;99.90
11736;DHT22;5924;51.398;7.088;2022-07-04T09:27:53;21.60;99.90
11736;DHT22;5924;51.398;7.088;2022-07-04T09:30:22;21.70;99.90
11736;DHT22;5924;51.398;7.088;2022-07-04T09:32:53;21.80;99.90
11736;DHT22;5924;51.398;7.088;2022-07-04T09:35:26;21.80;99.90
11736;DHT22;5924;51.398;7.088;2022-07-04T09:37:54;21.80;99.90
11736;DHT22;5924;51.398;7.088;2022-07-04T09:42:47;21.90;99.90
11736;DHT22;5924;51.398;7.088;2022-07-04T09:45:12;22.10;99.90
11736;DHT22;5924;51.398;7.088;2022-07-04T09:47:40;22.10;99.90
11736;DHT22;5924;51.398;7.088;2022-07-04T09:50:10;22.10;99.90
11736;DHT22;5924;51.398;7.088;2022-07-04T09:55:24;22.20;99.90
11736;DHT22;5924;51.398;7.088;2022-07-04T09:57:52;22.40;99.90
11736;DHT22;5924;51.398;7.088;2022-07-04T10:00:34;22.40;99.90
11736;DHT22;5924;51.398;7.088;2022-07-04T10:03:23;22.50;99.90
11736;DHT22;5924;51.398;7.088;2022-07-04T10:06:26;22.50;99.90
11736;DHT22;5924;51.398;7.088;2022-07-04T10:09:09;22.50;99.90
11736;DHT22;5924;51.398;7.088;2022-07-04T10:11:35;22.40;99.90
11736;DHT22;5924;51.398;7.088;2022-07-04T10:14:07;22.30;99.90
11736;DHT22;5924;51.398;7.088;2022-07-04T10:16:34;22.30;99.90
11736;DHT22;5924;51.398;7.088;2022-07-04T10:19:00;22.40;99.90
11736;DHT22;5924;51.398;7.088;2022-07-04T10:21:26;22.60;99.90
11736;DHT22;5924;51.398;7.088;2022-07-04T10:23:52;22.70;99.90
11736;DHT22;5924;51.398;7.088;2022-07-04T10:26:19;22.90;99.90
11736;DHT22;5924;51.398;7.088;2022-07-04T10:28:45;23.10;99.90
11736;DHT22;5924;51.398;7.088;2022-07-04T10:31:13;23.20;99.90
11736;DHT22;5924;51.398;7.088;2022-07-04T10:33:40;23.40;99.90
11736;DHT22;5924;51.398;7.088;2022-07-04T10:36:15;23.50;99.90
11736;DHT22;5924;51.398;7.088;2022-07-04T10:38:53;23.70;99.90
11736;DHT22;5924;51.398;7.088;2022-07-04T10:41:20;23.80;98.10
11736;DHT22;5924;51.398;7.088;2022-07-04T10:44:02;23.80;98.90
11736;DHT22;5924;51.398;7.088;2022-07-04T10:46:43;23.70;98.20
11736;DHT22;5924;51.398;7.088;2022-07-04T10:54:37;23.60;98.60
11736;DHT22;5924;51.398;7.088;2022-07-04T10:59:37;23.80;98.30
11736;DHT22;5924;51.398;7.088;2022-07-04T11:07:15;24.00;96.60
11736;DHT22;5924;51.398;7.088;2022-07-04T11:09:41;24.10;96.40
11736;DHT22;5924;51.398;7.088;2022-07-04T11:12:08;24.30;95.20
11736;DHT22;5924;51.398;7.088;2022-07-04T11:17:01;24.60;95.70
11736;DHT22;5924;51.398;7.088;2022-07-04T11:19:27;25.00;94.20
11736;DHT22;5924;51.398;7.088;2022-07-04T11:21:57;25.20;95.20
11736;DHT22;5924;51.398;7.088;2022-07-04T11:24:23;25.50;94.60
11736;DHT22;5924;51.398;7.088;2022-07-04T11:26:49;25.70;92.80
11736;DHT22;5924;51.398;7.088;2022-07-04T11:29:15;25.70;92.20
11736;DHT22;5924;51.398;7.088;2022-07-04T11:31:46;25.30;90.50
11736;DHT22;5924;51.398;7.088;2022-07-04T11:34:12;24.80;92.00
11736;DHT22;5924;51.398;7.088;2022-07-04T11:36:49;24.80;93.70
11736;DHT22;5924;51.398;7.088;2022-07-04T11:39:20;25.40;93.80
11736;DHT22;5924;51.398;7.088;2022-07-04T11:41:51;25.90;94.10
11736;DHT22;5924;51.398;7.088;2022-07-04T11:44:38;27.50;91.10
11736;DHT22;5924;51.398;7.088;2022-07-04T11:47:46;25.70;89.00
11736;DHT22;5924;51.398;7.088;2022-07-04T11:50:16;25.40;91.80
11736;DHT22;5924;51.398;7.088;2022-07-04T11:52:49;25.50;93.30
11736;DHT22;5924;51.398;7.088;2022-07-04T11:55:19;25.70;91.70
11736;DHT22;5924;51.398;7.088;2022-07-04T11:57:50;26.00;90.50
11736;DHT22;5924;51.398;7.088;2022-07-04T12:00:19;26.20;90.40
11736;DHT22;5924;51.398;7.088;2022-07-04T12:02:47;26.70;87.50
11736;DHT22;5924;51.398;7.088;2022-07-04T12:05:13;26.80;88.50
11736;DHT22;5924;51.398;7.088;2022-07-04T12:07:41;27.20;87.10
11736;DHT22;5924;51.398;7.088;2022-07-04T12:12:33;28.40;85.40
11736;DHT22;5924;51.398;7.088;2022-07-04T12:15:03;28.50;81.30
11736;DHT22;5924;51.398;7.088;2022-07-04T12:17:38;28.30;80.40
11736;DHT22;5924;51.398;7.088;2022-07-04T12:20:25;28.20;74.10
11736;DHT22;5924;51.398;7.088;2022-07-04T12:22:53;28.10;71.20
11736;DHT22;5924;51.398;7.088;2022-07-04T12:27:55;28.60;72.40
11736;DHT22;5924;51.398;7.088;2022-07-04T12:30:22;28.20;70.10
11736;DHT22;5924;51.398;7.088;2022-07-04T12:32:50;27.90;71.80
11736;DHT22;5924;51.398;7.088;2022-07-04T12:43:47;30.20;69.40
11736;DHT22;5924;51.398;7.088;2022-07-04T12:46:31;30.50;65.10
11736;DHT22;5924;51.398;7.088;2022-07-04T12:48:58;31.10;65.20
11736;DHT22;5924;51.398;7.088;2022-07-04T12:51:27;31.40;64.70
11736;DHT22;5924;51.398;7.088;2022-07-04T12:53:55;32.30;61.70
11736;DHT22;5924;51.398;7.088;2022-07-04T12:56:33;31.60;58.50
11736;DHT22;5924;51.398;7.088;2022-07-04T12:59:06;31.70;58.40
11736;DHT22;5924;51.398;7.088;2022-07-04T13:01:32;31.80;56.70
11736;DHT22;5924;51.398;7.088;2022-07-04T13:03:58;32.00;56.10
11736;DHT22;5924;51.398;7.088;2022-07-04T13:06:25;32.30;55.10
11736;DHT22;5924;51.398;7.088;2022-07-04T13:08:51;32.30;53.70
11736;DHT22;5924;51.398;7.088;2022-07-04T13:11:18;31.90;55.20
11736;DHT22;5924;51.398;7.088;2022-07-04T13:14:02;30.80;53.10
11736;DHT22;5924;51.398;7.088;2022-07-04T13:16:28;29.50;55.40
11736;DHT22;5924;51.398;7.088;2022-07-04T13:18:53;29.50;55.60
11736;DHT22;5924;51.398;7.088;2022-07-04T13:21:19;29.30;56.10
11736;DHT22;5924;51.398;7.088;2022-07-04T13:23:45;30.10;60.50
11736;DHT22;5924;51.398;7.088;2022-07-04T13:26:10;31.20;54.80
11736;DHT22;5924;51.398;7.088;2022-07-04T13:28:36;30.70;55.30
11736;DHT22;5924;51.398;7.088;2022-07-04T13:31:03;29.70;55.90
11736;DHT22;5924;51.398;7.088;2022-07-04T13:33:29;28.50;58.80
11736;DHT22;5924;51.398;7.088;2022-07-04T13:35:55;27.70;59.00
11736;DHT22;5924;51.398;7.088;2022-07-04T13:38:22;26.70;58.60
11736;DHT22;5924;51.398;7.088;2022-07-04T13:40:48;26.60;60.00
11736;DHT22;5924;51.398;7.088;2022-07-04T13:43:14;27.60;62.50
11736;DHT22;5924;51.398;7.088;2022-07-04T13:45:40;28.90;61.00
11736;DHT22;5924;51.398;7.088;2022-07-04T13:48:09;29.50;58.60
11736;DHT22;5924;51.398;7.088;2022-07-04T13:50:36;29.30;58.20
11736;DHT22;5924;51.398;7.088;2022-07-04T13:53:07;28.70;58.10
11736;DHT22;5924;51.398;7.088;2022-07-04T13:55:33;28.90;62.10
11736;DHT22;5924;51.398;7.088;2022-07-04T13:58:03;31.00;59.90
11736;DHT22;5924;51.398;7.088;2022-07-04T14:00:29;33.10;57.70
11736;DHT22;5924;51.398;7.088;2022-07-04T14:02:55;34.30;49.50
11736;DHT22;5924;51.398;7.088;2022-07-04T14:05:20;32.80;47.70
11736;DHT22;5924;51.398;7.088;2022-07-04T14:07:46;32.10;54.30
11736;DHT22;5924;51.398;7.088;2022-07-04T14:10:12;32.70;53.10
11736;DHT22;5924;51.398;7.088;2022-07-04T14:12:38;32.00;51.60
11736;DHT22;5924;51.398;7.088;2022-07-04T14:15:05;30.50;52.30
11736;DHT22;5924;51.398;7.088;2022-07-04T14:17:31;29.30;53.50
11736;DHT22;5924;51.398;7.088;2022-07-04T14:19:56;28.70;55.90
11736;DHT22;5924;51.398;7.088;2022-07-04T14:22:22;29.10;57.30
11736;DHT22;5924;51.398;7.088;2022-07-04T14:24:48;30.20;53.20
11736;DHT22;5924;51.398;7.088;2022-07-04T14:27:14;31.90;53.00
11736;DHT22;5924;51.398;7.088;2022-07-04T14:29:39;33.90;49.70
11736;DHT22;5924;51.398;7.088;2022-07-04T14:32:07;34.40;47.70
11736;DHT22;5924;51.398;7.088;2022-07-04T14:34:33;35.30;47.20
11736;DHT22;5924;51.398;7.088;2022-07-04T14:36:58;36.60;46.60
11736;DHT22;5924;51.398;7.088;2022-07-04T14:39:24;37.60;43.40
11736;DHT22;5924;51.398;7.088;2022-07-04T14:41:50;38.30;43.60
11736;DHT22;5924;51.398;7.088;2022-07-04T14:44:17;38.90;42.00
11736;DHT22;5924;51.398;7.088;2022-07-04T14:46:43;38.50;40.90
11736;DHT22;5924;51.398;7.088;2022-07-04T14:49:08;38.30;40.50
11736;DHT22;5924;51.398;7.088;2022-07-04T14:51:34;38.70;42.00
11736;DHT22;5924;51.398;7.088;2022-07-04T14:54:00;37.90;38.60
11736;DHT22;5924;51.398;7.088;2022-07-04T14:56:26;36.70;41.50
11736;DHT22;5924;51.398;7.088;2022-07-04T14:58:52;37.00;40.50
11736;DHT22;5924;51.398;7.088;2022-07-04T15:01:17;37.20;39.40
11736;DHT22;5924;51.398;7.088;2022-07-04T15:03:45;37.50;40.70
11736;DHT22;5924;51.398;7.088;2022-07-04T15:06:10;37.80;37.90
11736;DHT22;5924;51.398;7.088;2022-07-04T15:08:36;37.20;38.80
11736;DHT22;5924;51.398;7.088;2022-07-04T15:11:02;36.80;37.80
11736;DHT22;5924;51.398;7.088;2022-07-04T15:13:27;37.10;40.10
11736;DHT22;5924;51.398;7.088;2022-07-04T15:15:53;37.70;37.90
11736;DHT22;5924;51.398;7.088;2022-07-04T15:18:19;37.80;38.90
11736;DHT22;5924;51.398;7.088;2022-07-04T15:20:44;38.20;38.80
11736;DHT22;5924;51.398;7.088;2022-07-04T15:23:29;39.00;37.80
11736;DHT22;5924;51.398;7.088;2022-07-04T15:26:13;39.20;36.80
11736;DHT22;5924;51.398;7.088;2022-07-04T15:28:39;39.40;36.70
11736;DHT22;5924;51.398;7.088;2022-07-04T15:31:04;39.50;35.20
11736;DHT22;5924;51.398;7.088;2022-07-04T15:33:30;39.30;35.80
11736;DHT22;5924;51.398;7.088;2022-07-04T15:35:56;39.50;36.20
11736;DHT22;5924;51.398;7.088;2022-07-04T15:38:23;40.10;35.50
11736;DHT22;5924;51.398;7.088;2022-07-04T15:40:49;40.40;35.40
11736;DHT22;5924;51.398;7.088;2022-07-04T15:43:15;40.30;34.20
11736;DHT22;5924;51.398;7.088;2022-07-04T15:45:41;39.70;34.90
11736;DHT22;5924;51.398;7.088;2022-07-04T15:48:07;38.80;36.50
11736;DHT22;5924;51.398;7.088;2022-07-04T15:50:32;39.00;34.80
11736;DHT22;5924;51.398;7.088;2022-07-04T15:52:58;39.20;36.00
11736;DHT22;5924;51.398;7.088;2022-07-04T15:55:24;39.60;34.40
11736;DHT22;5924;51.398;7.088;2022-07-04T15:57:49;39.20;35.10
11736;DHT22;5924;51.398;7.088;2022-07-04T16:00:16;39.00;35.10
11736;DHT22;5924;51.398;7.088;2022-07-04T16:02:42;38.90;34.60
11736;DHT22;5924;51.398;7.088;2022-07-04T16:05:08;39.30;34.70
11736;DHT22;5924;51.398;7.088;2022-07-04T16:07:34;39.00;33.80
11736;DHT22;5924;51.398;7.088;2022-07-04T16:10:00;37.60;34.70
11736;DHT22;5924;51.398;7.088;2022-07-04T16:12:26;34.80;37.60
11736;DHT22;5924;51.398;7.088;2022-07-04T16:14:51;33.20;40.60
11736;DHT22;5924;51.398;7.088;2022-07-04T16:17:17;33.70;40.30
11736;DHT22;5924;51.398;7.088;2022-07-04T16:19:43;34.80;38.40
11736;DHT22;5924;51.398;7.088;2022-07-04T16:22:08;35.60;38.50